Terminal Aerodrome Forecast
Issued by NWS Twin Cities, MN

Home | Current Version | Previous Version | Text Only | Print | Product List | Glossary Off
Versions: 1 2 3 4 5 6 7 8 9 10 11 12 13 14

065
FTUS43 KMPX 041120
TAFSTC
TAF
KSTC 041120Z 0412/0512 17005KT P6SM BKN050 OVC080
     FM041300 24005KT 3SM -SN BR OVC018
      TEMPO 0413/0417 3/4SM -SN BR OVC006
     FM041700 30008KT P6SM OVC015
     FM041900 30008KT P6SM BKN020
     FM042300 30004KT P6SM FEW020
     FM050600 VRB03KT P6SM BKN250=

USA.gov is the U.S. government's official web portal to all federal, state and local government web resources and services.